createdAt,value
2018-06-27T00:03:35.931Z,3.90
2018-06-27T00:08:39.191Z,3.73
2018-06-27T00:13:42.455Z,3.57
2018-06-27T00:18:46.040Z,3.63
2018-06-27T00:23:49.726Z,3.83
2018-06-27T00:28:52.976Z,4.30
2018-06-27T00:33:56.218Z,3.30
2018-06-27T00:38:59.449Z,3.80
2018-06-27T00:44:02.744Z,3.50
2018-06-27T00:49:06.194Z,3.50
2018-06-27T00:54:09.866Z,3.27
2018-06-27T00:59:13.085Z,4.03
2018-06-27T01:04:16.315Z,3.67
2018-06-27T01:09:19.561Z,3.37
2018-06-27T01:14:22.803Z,4.07
2018-06-27T01:19:26.043Z,3.50
2018-06-27T01:24:29.280Z,3.47
2018-06-27T01:29:32.504Z,3.20
2018-06-27T01:34:35.751Z,3.80
2018-06-27T01:39:38.991Z,3.13
2018-06-27T01:44:42.206Z,4.17
2018-06-27T01:49:45.439Z,3.47
2018-06-27T01:54:48.677Z,3.50
2018-06-27T01:59:51.940Z,3.77
2018-06-27T02:04:55.185Z,3.57
2018-06-27T02:09:58.420Z,3.83
2018-06-27T02:15:01.662Z,3.70
2018-06-27T02:20:04.900Z,4.90
2018-06-27T02:25:08.209Z,3.60
2018-06-27T02:30:11.436Z,3.20
2018-06-27T02:35:14.652Z,3.73
2018-06-27T02:40:17.882Z,10.90
2018-06-27T02:45:21.107Z,3.47
2018-06-27T02:50:24.350Z,3.67
2018-06-27T02:55:27.564Z,4.20
2018-06-27T03:00:30.791Z,3.63
2018-06-27T03:05:34.023Z,3.80
2018-06-27T03:10:37.248Z,4.27
2018-06-27T03:15:41.208Z,3.50
2018-06-27T03:20:45.049Z,4.20
2018-06-27T03:25:48.308Z,3.90
2018-06-27T03:30:51.527Z,4.20
2018-06-27T03:35:54.748Z,4.00
2018-06-27T03:40:57.958Z,3.30
2018-06-27T03:46:01.179Z,3.90
2018-06-27T03:51:04.400Z,3.93
2018-06-27T03:56:08.340Z,4.33
2018-06-27T04:01:11.548Z,3.97
2018-06-27T04:06:14.755Z,3.90
2018-06-27T04:11:17.966Z,11.60
2018-06-27T04:16:21.183Z,3.40
2018-06-27T04:21:24.402Z,5.10
2018-06-27T04:26:27.636Z,6.23
2018-06-27T04:31:31.211Z,6.63
2018-06-27T04:36:34.655Z,3.83
2018-06-27T04:41:38.893Z,4.10
2018-06-27T04:46:42.643Z,5.10
2018-06-27T04:51:45.884Z,5.50
2018-06-27T04:56:49.095Z,4.80
2018-06-27T05:01:52.315Z,4.10
2018-06-27T05:06:55.632Z,4.90
2018-06-27T05:11:58.856Z,5.00
2018-06-27T05:17:02.088Z,3.50
2018-06-27T05:22:06.228Z,5.80
2018-06-27T05:27:09.555Z,4.47
2018-06-27T05:32:12.819Z,3.77
2018-06-27T05:37:16.008Z,4.80
2018-06-27T05:42:19.306Z,8.03
2018-06-27T05:47:22.511Z,5.33
2018-06-27T05:52:25.716Z,3.53
2018-06-27T05:57:28.920Z,5.57
2018-06-27T06:02:32.137Z,4.87
2018-06-27T06:07:35.367Z,5.10
2018-06-27T06:12:38.603Z,5.90
2018-06-27T06:17:41.861Z,4.70
2018-06-27T06:22:45.096Z,5.97
2018-06-27T06:27:48.070Z,5.90
2018-06-27T06:32:51.307Z,6.00
2018-06-27T06:37:54.570Z,5.90
2018-06-27T06:42:57.816Z,6.37
2018-06-27T06:48:01.052Z,7.70
2018-06-27T06:53:04.026Z,4.73
2018-06-27T06:58:07.263Z,6.63
2018-06-27T07:03:10.474Z,8.73
2018-06-27T07:08:13.765Z,7.37
2018-06-27T07:13:17.391Z,6.73
2018-06-27T07:18:20.635Z,6.20
2018-06-27T07:23:23.865Z,9.67
2018-06-27T07:28:27.143Z,11.17
2018-06-27T07:33:30.324Z,11.80
2018-06-27T07:38:33.571Z,9.03
2018-06-27T07:43:36.793Z,9.43
2018-06-27T07:48:40.076Z,14.83
2018-06-27T07:53:43.298Z,15.50
2018-06-27T07:58:46.512Z,12.17
2018-06-27T08:03:49.748Z,15.60
2018-06-27T08:08:52.980Z,12.70
2018-06-27T08:13:56.324Z,13.77
2018-06-27T08:18:59.563Z,16.27
2018-06-27T08:24:03.260Z,30.60
2018-06-27T08:29:06.515Z,31.20
2018-06-27T08:34:09.704Z,22.07
2018-06-27T08:39:12.948Z,19.67
2018-06-27T08:44:16.215Z,15.40
2018-06-27T08:49:19.448Z,13.33
2018-06-27T08:54:22.687Z,14.90
2018-06-27T08:59:25.927Z,12.03
2018-06-27T09:04:29.179Z,9.93
2018-06-27T09:09:32.430Z,10.70
2018-06-27T09:14:35.669Z,17.67
2018-06-27T09:19:38.896Z,13.97
2018-06-27T09:24:42.128Z,13.40
2018-06-27T09:29:45.377Z,15.03
2018-06-27T09:34:48.591Z,15.53
2018-06-27T09:39:51.808Z,14.20
2018-06-27T09:44:55.132Z,16.13
2018-06-27T09:49:58.331Z,19.00
2018-06-27T09:55:01.565Z,35.90
2018-06-27T10:00:05.324Z,13.03
2018-06-27T10:05:08.596Z,14.40
2018-06-27T10:10:11.840Z,6.50
2018-06-27T10:15:15.095Z,12.47
2018-06-27T10:20:18.321Z,11.43
2018-06-27T10:25:21.555Z,9.10
2018-06-27T10:30:24.791Z,9.13
2018-06-27T10:35:28.005Z,8.20
2018-06-27T10:40:31.224Z,6.40
2018-06-27T10:45:34.211Z,8.53
2018-06-27T10:50:37.448Z,13.93
2018-06-27T10:55:40.676Z,7.33
2018-06-27T11:00:43.900Z,9.73
2018-06-27T11:05:47.116Z,4.43
2018-06-27T11:10:50.339Z,4.23
2018-06-27T11:15:53.580Z,7.93
2018-06-27T11:20:56.804Z,5.20
2018-06-27T11:26:00.093Z,3.07
2018-06-27T11:31:03.302Z,3.63
2018-06-27T11:36:06.518Z,2.77
2018-06-27T11:41:09.752Z,3.00
2018-06-27T11:46:12.723Z,4.50
2018-06-27T11:51:15.948Z,6.50
2018-06-27T11:56:19.178Z,3.03
2018-06-27T12:01:22.403Z,2.17
2018-06-27T12:06:25.735Z,2.63
2018-06-27T12:11:28.963Z,2.67
2018-06-27T12:16:32.199Z,3.80
2018-06-27T12:21:35.431Z,3.53
2018-06-27T12:26:38.649Z,3.07
2018-06-27T12:31:41.844Z,2.30
2018-06-27T12:36:45.045Z,2.53
2018-06-27T12:41:48.252Z,3.03
2018-06-27T12:46:51.492Z,2.07
2018-06-27T12:51:54.712Z,2.23
2018-06-27T12:56:57.924Z,6.90
2018-06-27T13:02:01.160Z,3.53
2018-06-27T13:07:04.412Z,4.87
2018-06-27T13:12:07.668Z,3.00
2018-06-27T13:17:10.884Z,3.73
2018-06-27T13:22:14.097Z,5.63
2018-06-27T13:27:17.303Z,4.63
2018-06-27T13:32:20.508Z,2.33
2018-06-27T13:37:23.796Z,3.47
2018-06-27T13:42:27.035Z,2.77
2018-06-27T13:47:30.496Z,6.50
2018-06-27T13:52:33.745Z,2.47
2018-06-27T13:57:36.963Z,2.17
2018-06-27T14:02:40.177Z,2.07
2018-06-27T14:07:43.400Z,4.60
2018-06-27T14:12:46.655Z,2.63
2018-06-27T14:17:49.915Z,3.23
2018-06-27T14:22:53.144Z,2.10
2018-06-27T14:27:56.376Z,2.30
2018-06-27T14:32:59.631Z,2.10
2018-06-27T14:38:02.985Z,2.70
2018-06-27T14:43:06.333Z,2.50
2018-06-27T14:48:09.563Z,1.80
2018-06-27T14:53:12.780Z,1.83
2018-06-27T14:58:16.011Z,3.00
2018-06-27T15:03:19.374Z,1.90
2018-06-27T15:08:22.908Z,6.77
2018-06-27T15:13:26.151Z,2.73
2018-06-27T15:18:30.640Z,2.50
2018-06-27T15:23:33.930Z,1.37
2018-06-27T15:28:37.204Z,1.57
2018-06-27T15:33:40.424Z,1.37
2018-06-27T15:38:43.886Z,2.43
2018-06-27T15:43:47.180Z,5.70
2018-06-27T15:48:50.404Z,2.90
2018-06-27T15:53:53.636Z,4.70
2018-06-27T15:58:56.876Z,2.40
2018-06-27T16:04:00.208Z,1.30
2018-06-27T16:09:04.500Z,1.60
2018-06-27T16:14:07.731Z,1.30
2018-06-27T16:19:10.948Z,2.80
2018-06-27T16:24:14.230Z,2.10
2018-06-27T16:29:17.427Z,1.83
2018-06-27T16:34:20.795Z,1.40
2018-06-27T16:39:23.923Z,3.67
2018-06-27T16:44:27.161Z,1.50
2018-06-27T16:49:30.597Z,3.03
2018-06-27T16:54:33.905Z,2.90
2018-06-27T16:59:37.120Z,1.20
2018-06-27T17:04:40.318Z,1.57
2018-06-27T17:09:43.526Z,2.30
2018-06-27T17:14:47.627Z,1.60
2018-06-27T17:19:50.833Z,1.50
2018-06-27T17:24:54.163Z,1.40
2018-06-27T17:29:57.400Z,1.50
2018-06-27T17:35:02.303Z,1.70
2018-06-27T17:40:05.830Z,3.07
2018-06-27T17:45:09.048Z,1.60
2018-06-27T17:50:12.288Z,1.37
2018-06-27T17:55:15.515Z,5.13
2018-06-27T18:00:18.792Z,1.40
2018-06-27T18:05:21.999Z,1.63
2018-06-27T18:10:25.220Z,2.50
2018-06-27T18:15:28.440Z,2.40
2018-06-27T18:20:31.760Z,1.60
2018-06-27T18:25:34.991Z,2.60
2018-06-27T18:30:38.195Z,2.10
2018-06-27T18:35:41.408Z,1.27
2018-06-27T18:40:45.536Z,1.87
2018-06-27T18:45:49.062Z,1.70
2018-06-27T18:50:52.268Z,3.80
2018-06-27T18:55:55.997Z,1.83
2018-06-27T19:00:59.214Z,1.57
2018-06-27T19:06:02.424Z,1.73
2018-06-27T19:11:07.884Z,1.40
2018-06-27T19:16:12.632Z,1.93
2018-06-27T19:21:16.558Z,2.60
2018-06-27T19:26:21.367Z,1.70
2018-06-27T19:31:25.670Z,1.70
2018-06-27T19:36:29.904Z,1.53
2018-06-27T19:41:33.140Z,1.60
2018-06-27T19:46:36.352Z,1.90
2018-06-27T19:51:39.647Z,1.53
2018-06-27T19:56:42.809Z,1.40
2018-06-27T20:01:46.040Z,2.20
2018-06-27T20:06:49.271Z,1.57
2018-06-27T20:11:52.496Z,1.60
2018-06-27T20:16:58.235Z,2.10
2018-06-27T20:22:01.499Z,2.70
2018-06-27T20:27:04.751Z,2.13
2018-06-27T20:32:07.964Z,1.70
2018-06-27T20:37:11.266Z,1.67
2018-06-27T20:42:14.411Z,1.60
2018-06-27T20:47:17.704Z,1.50
2018-06-27T20:52:20.872Z,1.60
2018-06-27T20:57:24.134Z,2.73
2018-06-27T21:02:27.360Z,2.10
2018-06-27T21:07:30.609Z,1.60
2018-06-27T21:12:33.939Z,1.50
2018-06-27T21:17:37.179Z,1.57
2018-06-27T21:22:40.515Z,3.17
2018-06-27T21:27:43.744Z,3.90
2018-06-27T21:32:46.969Z,1.47
2018-06-27T21:37:50.204Z,1.50
2018-06-27T21:42:53.591Z,1.10
2018-06-27T21:47:56.823Z,1.50
2018-06-27T21:53:00.053Z,1.30
2018-06-27T21:58:03.283Z,1.30
2018-06-27T22:03:06.512Z,1.97
2018-06-27T22:08:09.763Z,1.53
2018-06-27T22:13:13.015Z,1.60
2018-06-27T22:18:16.571Z,1.30
2018-06-27T22:23:19.900Z,2.40
2018-06-27T22:28:23.139Z,5.80
2018-06-27T22:33:26.368Z,1.50
2018-06-27T22:38:29.587Z,1.40
2018-06-27T22:43:32.859Z,1.90
2018-06-27T22:48:36.153Z,1.50
2018-06-27T22:53:39.380Z,1.67
2018-06-27T22:58:42.598Z,1.80
2018-06-27T23:03:45.855Z,1.73
2018-06-27T23:08:49.091Z,3.10
2018-06-27T23:13:52.323Z,7.00
2018-06-27T23:18:55.695Z,2.00
2018-06-27T23:23:58.910Z,1.50
2018-06-27T23:29:02.116Z,1.40
2018-06-27T23:34:05.359Z,2.23
2018-06-27T23:39:10.590Z,1.60
2018-06-27T23:44:13.928Z,1.50
2018-06-27T23:49:17.144Z,1.53
2018-06-27T23:54:20.347Z,2.20
2018-06-27T23:59:23.556Z,1.60
